Timeline UpdatesTrip UpdatesNews PostsPvt PostsTravel TipsAdmin PostsConv PostsFollowed PostsChat RequestsBlog PostsPNR Posts

Disclaimer
Search
 
 
Mon Sep 15, 2014 07:32:32 ISTHomeTrainsΣChainsAtlasPNRForumGalleryNewsFAQTripsMembersLoginFeedback
No Recent News for this Train
Other Trains in the News **new
Latest...
.
Sat Sep 13, 2014 (05:37PM)
⇐ Return Journey: Train# 58117

58118/Gondia-Jharsuguda Passenger (UnReserved)

Time-Table HAS CHANGED.
Sep 03 (8:46PM)
Change Departure Station:
Change Arrival Station:
Post a Train Travel TipPost a Train Travel Tip **new
Post a Comment/Question/Picture/VideoPost a Comment/Question/Picture/Video
Pantry/Catering
???
RSA - Rake Sharing
Rake/Coach Composition
Loco
BIA WAM-4
News    PNR    Forum    Time-Table    Availability    Fare Chart    Map    Arr/Dep History    Trips    Gallery    ΣChains    X/O    Timeline    
Travel Time: 0h 28m    2 halts    Distance: 30 km    Avg Speed: 64 km/hr
Type: Passenger
Zone: SER/South Eastern
Departs @ 05:05 (Avg 2m late)
Platform# ???
SMTWTFS
Gondia Junction/G 
Arrives @ 05:33
Platform# ???
SMTWTFS
Dhanoli/DNL 

2 halts. 2 intermediate Stations between Gondia Junction and Dhanoli

Show ALL intermediate Stations  Show Old Time-Table

#CodeStation NameX/OArrivesAvgDepartsAvgHaltPFDay#KmSpeedElevZoneAddress
1Gondia Junction (7)»  -05:00 05:05+2--10.079316mSECRGondia 441601, Maharashtra
2GDMGudma (2)  05:10 05:14+905:11 05:15+111m--111.965323mSECRGondia, Maharashtra
3AGNAmgaon (2)X  05:20 05:25+1005:22 05:27+112m--122.872317mSECRGondia, Maharashtra
4DNL•Dhanoli (2)•  05:28 05:33-05:29 05:34-1m--130.175310mSECRAmgaon, Maharashtra
5SKSSalekasa (2)X  05:36 05:40+1305:38 05:42+142m--137.553312mSECRRajnandgaon, Chhattisgarh
6DKSDarekasa (2)  05:51 05:55+1405:52 05:56+161m--149.166381mSECRRajnandgaon, Chhattisgarh
7BTLBortalao (2)  05:59 06:03+1706:00 06:04+201m--156.853409mSECRRajnandgaon, Chhattisgarh
8PJBPaniajob (2)  06:12 06:14+1806:13 06:15+201m--165.646363mSECRRajnandgaon, Chhattisgarh
9DGGDongargarh (2)O  06:25+1906:35+1810m--173.365 SECRDongargarh, Chhattisgarh
10JTRJatkanhar  06:41+1806:42+191m--179.840330mSECRRajnandgaon, Chhattisgarh
11MUAMusraX  06:52+1606:54+162m--186.459323mSECRRajnandgaon, Chhattisgarh
12BAKLBakal  07:02+1407:03+141m--194.353318mSECRRajnandgaon, Chhattisgarh
13RJNRaj Nandgaon (3)X  07:15+1107:20+105m--1104.859313mSECRRajnandgaon, Chhattisgarh
14PMSParmalkasa  07:28+907:29+91m--1112.770300mSECRRajnandgaon, Chhattisgarh
15MUPMurhipar  07:35+1407:37+132m--1119.864319mSECRRajnandgaon, Chhattisgarh
16RSMRasmaraXO  07:44+1107:45+111m--1127.219292mSECRRasmada, Chhattisgarh
17DURGDurg Junction (6)  08:10+908:15+115m--1135.339299mSECRPh: 91-788-2322059, Chhattisgarh
18BQRBhilai Nagar (2)X  08:22+1208:24+112m--1139.853298mSECRBhilai, Chhattisgarh
19BPHBBhilai Power House (3)X  08:29+008:31+02m--1144.256312mSECRBhilai, Chhattisgarh
20BIABhilai (2)  08:36+1208:38+122m--1148.856309mSECRBhilai, Chhattisgarh
21 new halt!!  08:42-08:44-2m--1152.5560m???
22 new halt!!  08:47-08:48-1m--1155.3470m???
23KMIKumhari (2)X  08:54+1808:56+182m--1160.062287mSECRKumhari, Chhattisgarh
24SZBSarona Cabin (2)  09:02+1909:04+202m--1166.248282mSECRRaipur, Chhattisgarh
25SRWNSaraswatinagar (2)X  09:09-09:11-2m--1170.115291mSECRRaipur, Chhattisgarh
26RRaipur Junction (6)  09:20+1409:27+157m--1172.431297mSECRRaipur, Chhattisgarh
27WRCWRS Colony PH  09:32-09:33-1m--1175.036286mSECRRaipur, Chhattisgarh
28URKUrkuraX  09:39 09:38+2109:41 09:40+212m--1178.086275mSECRRaipur, Chhattisgarh
29MDHMandharX  09:47 09:46+2309:49 09:48+252m--1186.664281mSECRDonde Kalan, Chhattisgarh
30SLHSiliariX  09:58 09:57+2610:00 09:59+322m--1196.154280mSECRBanjari Rd, Chhattisgarh
31TLDTilda (3)  10:17 10:15+3810:19 10:17+382m--1210.649 SECRBanjari Rd, Chhattisgarh
32HNHathbandhX  10:32 10:30+3610:34 10:32+402m--1221.384283mSECRRaipur, Chhattisgarh
33BYTBhatapara (4)XO  10:45 10:43+3610:47 10:45+382m--1236.688270mSECRBanjari Road, Chhattisgarh
34NPINipaniaX  10:58 10:55+5011:00 10:57+502m--1251.441259mSECRNational Highway 200, Chhattisgarh
35DGSDagori  11:13 11:09+4811:15 11:11+482m--1259.677254mSECRCollege Road, Chhattisgarh
36BYLBelhaX  11:21 11:17+4811:23 11:19+502m--1267.370269mSECRCollege Road, Chhattisgarh
37CHBTChakarbhatha  11:28 11:24-11:30 11:26-2m--1273.146285mSECRBilaspur, Chhattisgarh
38DPHDadhapara (3)X  11:35 11:30+5911:40 11:35+1:015m--1276.24272mSECRBilaspur, Chhattisgarh
39BSPBilaspur Junction (8)  13:15+713:45+830m21282.848271mSECRBilaspur, Chhattisgarh
40GTWGatora  13:54 13:53+513:57 13:55+43 2m--1289.357268mSECRBilaspur, Chhattisgarh
41JRMGJairamnagar  14:05 14:03+614:07 14:05+62m--1297.067272mSECRNational Highway 200, Chhattisgarh
42KTSHKotmi Sonar Halt  14:13 14:11-14:15 14:13-2m--1303.664266mSECRKotmisunar, Chhattisgarh
43AKTAkaltara (4)X  14:21 14:19+1014:23 14:21+112m--1310.158284mSECRDist. Janjgir Champa, Chhattisgarh
44KPNAKapan (1)  14:30 14:29-14:32 14:31-2m11317.848263mSECRNational Highway 200, Chhattisgarh
45NIANailaX  14:45 14:40+714:50 14:45+75m--1325.043273mSECRJanjgir, Chhattisgarh
46CPHChampa Junction (3)  15:05 15:00+915:20 15:10+1015 10m--1335.990264mSECRNational Highway 200 (07819-245767), Chhattisgarh
47SGRDSaragaon RoadX  15:28 15:16-15:30 15:18-2m--1344.866254mSECRNational Highway 200, Chhattisgarh
48BUABaradwarX  15:38 15:24+915:40 15:26+92m--1351.471 SECRJanjgir-Champa, Chhattisgarh
49JDDAJetha  15:46 15:32-15:48 15:34-2m--1358.578244mSECRNational Highway 200, Chhattisgarh
50SKTSakti (4)X  16:15 15:40-216:30 15:45+615 5m--1366.256237mSECRJanjgir-Champa, Chhattisgarh
51JDIJharradihX  16:38 15:56+916:40 15:58+142m--1376.431247mSECRRaigarh, Chhattisgarh
52KHSKharsiaXO  16:58 16:08+417:03 16:10+75 2m--1381.651 SECRNational Highway 200, Chhattisgarh
53ROBRobertsonX  17:10 16:20+1217:12 16:22+162m--1390.177239mSECRRaigarh, Chhattisgarh
54BEFBhupdeopur  17:20 16:29+1817:22 16:31+182m--1399.279243mSECRRaigarh, Chhattisgarh
55KDTRKirodimalnagar (5)X  17:29 16:38+2217:31 16:40+222m--1408.429240mSECRRaigarh, Chhattisgarh
56RIGRaigarh (3)  17:45 16:55+2417:55 17:05+2510m--1415.697220mSECRRaigarh, Chhattisgarh
57KRLKotarlia  18:03 17:11+2318:05 17:13+222m--1425.373229mSECRRaigarh, Chhattisgarh
58JMGJamga  18:10 17:20+2618:12 17:22+522m--1433.872233mSECRJamga Station, Chhattisgarh
59DAODaghora  18:28 17:32+4618:30 17:34+522m--1445.856269mSECRRaigarh, Chhattisgarh
60HGRHimgirX  18:38 17:42+4818:40 17:44+592m--1453.281275mSECRNational Highway 200, Chhattisgarh
61BPHBelpahar  18:50 17:54+4918:52 17:56+552m--1466.641 SECRBelpahar, Odisha
62BRJNBrajrajnagar  19:10 18:09+4919:15 18:11+485 2m--1475.623212mSECRBrajrajnagar, Odisha
63IBIb  19:23 18:18+4019:25 18:20+472m--1478.214207mSECRJharsuguda, Odisha
64JSGJharsuguda Junction (5)  20:15 19:00+16---1487.2-236mSERJharsuguda, Odisha
Scroll to Top
Scroll to Bottom